createdAt,value
2019-05-29T00:00:25.037Z,99.900002
2019-05-29T00:05:27.311Z,99.900002
2019-05-29T00:10:29.673Z,99.900002
2019-05-29T00:15:31.909Z,99.900002
2019-05-29T00:20:34.242Z,99.900002
2019-05-29T00:25:36.471Z,99.900002
2019-05-29T00:30:38.754Z,99.900002
2019-05-29T00:35:41.326Z,99.900002
2019-05-29T00:40:43.508Z,99.900002
2019-05-29T00:45:45.823Z,99.900002
2019-05-29T00:50:49.158Z,99.900002
2019-05-29T00:55:50.422Z,99.900002
2019-05-29T01:00:52.551Z,99.900002
2019-05-29T01:05:54.864Z,99.900002
2019-05-29T01:10:57.167Z,99.900002
2019-05-29T01:16:00.545Z,99.900002
2019-05-29T01:21:01.780Z,99.900002
2019-05-29T01:26:04.140Z,99.900002
2019-05-29T01:31:06.327Z,99.900002
2019-05-29T01:36:10.017Z,99.900002
2019-05-29T01:41:15.188Z,99.900002
2019-05-29T01:46:13.198Z,99.900002
2019-05-29T01:51:17.459Z,99.900002
2019-05-29T01:56:19.841Z,99.900002
2019-05-29T02:01:20.064Z,99.900002
2019-05-29T02:06:22.404Z,99.900002
2019-05-29T02:11:24.641Z,99.900002
2019-05-29T02:16:26.991Z,99.900002
2019-05-29T02:21:29.221Z,99.900002
2019-05-29T02:26:31.519Z,99.900002
2019-05-29T02:31:33.868Z,99.900002
2019-05-29T02:36:37.528Z,99.900002
2019-05-29T02:41:38.458Z,99.900002
2019-05-29T02:46:40.746Z,99.900002
2019-05-29T02:51:42.950Z,99.900002
2019-05-29T02:56:45.300Z,99.900002
2019-05-29T03:01:47.506Z,99.900002
2019-05-29T03:06:49.928Z,99.900002
2019-05-29T03:11:52.611Z,99.900002
2019-05-29T03:16:54.438Z,99.900002
2019-05-29T03:21:57.902Z,99.900002
2019-05-29T03:26:59.048Z,99.900002
2019-05-29T03:32:02.312Z,99.900002
2019-05-29T03:37:05.416Z,99.900002
2019-05-29T03:42:11.502Z,99.900002
2019-05-29T03:47:08.285Z,99.900002
2019-05-29T03:52:10.541Z,99.900002
2019-05-29T03:57:13.000Z,99.900002
2019-05-29T04:02:16.322Z,99.900002
2019-05-29T04:07:17.622Z,99.900002
2019-05-29T04:12:19.841Z,99.900002
2019-05-29T04:23:13.450Z,99.900002
2019-05-29T04:28:15.836Z,99.900002
2019-05-29T04:33:18.078Z,99.900002
2019-05-29T04:38:20.379Z,99.900002
2019-05-29T04:43:22.655Z,99.900002
2019-05-29T04:48:24.964Z,99.900002
2019-05-29T04:53:29.225Z,99.900002
2019-05-29T04:58:30.752Z,99.900002
2019-05-29T05:03:33.099Z,99.900002
2019-05-29T05:08:35.317Z,99.900002
2019-05-29T05:13:36.363Z,99.900002
2019-05-29T05:18:40.035Z,99.900002
2019-05-29T05:23:41.165Z,99.900002
2019-05-29T05:28:45.581Z,99.900002
2019-05-29T05:33:47.014Z,99.900002
2019-05-29T05:38:47.950Z,99.900002
2019-05-29T05:43:50.171Z,99.900002
2019-05-29T05:48:52.441Z,99.900002
2019-05-29T05:53:55.010Z,99.900002
2019-05-29T05:58:57.074Z,99.900002
2019-05-29T06:03:59.379Z,99.900002
2019-05-29T06:09:02.316Z,99.900002
2019-05-29T06:14:03.988Z,99.900002
2019-05-29T06:19:06.242Z,99.900002
2019-05-29T06:24:08.527Z,99.900002
2019-05-29T06:29:10.816Z,94.699997
2019-05-29T06:34:13.113Z,88.099998
2019-05-29T06:39:15.578Z,86.699997
2019-05-29T06:44:17.659Z,82.5
2019-05-29T06:49:20.108Z,89.900002
2019-05-29T06:54:22.410Z,84.699997
2019-05-29T06:59:24.611Z,76
2019-05-29T07:04:26.926Z,74
2019-05-29T07:09:29.152Z,73.599998
2019-05-29T07:14:32.717Z,73.900002
2019-05-29T07:19:47.643Z,77
2019-05-29T07:20:04.280Z,77
2019-05-29T07:24:37.002Z,72.800003
2019-05-29T07:29:39.039Z,67.800003
2019-05-29T07:34:51.242Z,71.5
2019-05-29T07:35:10.587Z,71.5
2019-05-29T07:39:43.580Z,66.699997
2019-05-29T07:44:46.322Z,63.5
2019-05-29T07:54:50.021Z,61.400002
2019-05-29T07:59:52.110Z,59.299999
2019-05-29T08:04:54.798Z,58.200001
2019-05-29T08:09:56.650Z,58.400002
2019-05-29T08:14:58.964Z,56.299999
2019-05-29T08:20:06.876Z,58
2019-05-29T08:25:03.666Z,45.599998
2019-05-29T08:30:05.993Z,49.299999
2019-05-29T08:35:08.243Z,43
2019-05-29T08:40:10.516Z,46.599998
2019-05-29T08:45:12.799Z,44.700001
2019-05-29T08:50:18.643Z,38.400002
2019-05-29T08:55:17.349Z,50.400002
2019-05-29T09:00:19.696Z,39.400002
2019-05-29T09:05:21.993Z,43.700001
2019-05-29T09:10:24.247Z,45.5
2019-05-29T09:15:26.580Z,36.799999
2019-05-29T09:20:43.530Z,51.700001
2019-05-29T09:21:03.365Z,51.700001
2019-05-29T09:25:31.138Z,41.400002
2019-05-29T09:30:33.428Z,39
2019-05-29T09:35:35.905Z,37.700001
2019-05-29T09:40:38.009Z,39.099998
2019-05-29T09:45:40.297Z,36.900002
2019-05-29T09:50:50.135Z,38.799999
2019-05-29T09:55:44.918Z,37.099998
2019-05-29T10:00:47.203Z,44.599998
2019-05-29T10:05:49.533Z,40.299999
2019-05-29T10:15:55.618Z,36.099998
2019-05-29T10:20:57.679Z,40.900002
2019-05-29T10:26:00.281Z,34
2019-05-29T10:31:03.699Z,33.5
2019-05-29T10:36:04.102Z,34.700001
2019-05-29T10:41:07.043Z,35.900002
2019-05-29T10:46:07.925Z,33.299999
2019-05-29T10:51:10.077Z,44.599998
2019-05-29T10:56:12.441Z,36.099998
2019-05-29T11:01:14.803Z,31.700001
2019-05-29T11:06:17.075Z,35
2019-05-29T11:11:19.287Z,32.799999
2019-05-29T11:16:21.707Z,29.799999
2019-05-29T11:21:23.911Z,31
2019-05-29T11:26:26.181Z,30.200001
2019-05-29T11:31:28.441Z,33
2019-05-29T11:36:30.762Z,26.9
2019-05-29T11:41:33.223Z,25.6
2019-05-29T11:46:35.299Z,25
2019-05-29T11:51:37.681Z,27.5
2019-05-29T11:56:40.040Z,27.1
2019-05-29T12:01:50.150Z,29
2019-05-29T12:06:44.520Z,25.700001
2019-05-29T12:11:46.774Z,27
2019-05-29T12:16:49.165Z,26.4
2019-05-29T12:21:52.259Z,27.700001
2019-05-29T12:26:54.495Z,34.5
2019-05-29T12:31:57.071Z,29.5
2019-05-29T12:36:59.536Z,29.700001
2019-05-29T12:42:01.801Z,33.599998
2019-05-29T12:47:04.228Z,30.4
2019-05-29T12:52:07.538Z,28.5
2019-05-29T12:57:07.537Z,27.5
2019-05-29T13:02:09.860Z,27.299999
2019-05-29T13:07:12.231Z,28.200001
2019-05-29T13:12:14.450Z,31.9
2019-05-29T13:17:16.747Z,24.6
2019-05-29T13:22:19.029Z,31
2019-05-29T13:27:21.380Z,23.9
2019-05-29T13:32:23.561Z,24.700001
2019-05-29T13:37:25.883Z,32.099998
2019-05-29T13:42:28.105Z,29.1
2019-05-29T13:47:30.414Z,25
2019-05-29T13:52:32.770Z,31.6
2019-05-29T13:57:35.217Z,27
2019-05-29T14:02:37.268Z,31.9
2019-05-29T14:07:39.551Z,29.299999
2019-05-29T14:12:42.047Z,30.299999
2019-05-29T14:17:44.229Z,30.299999
2019-05-29T14:22:46.536Z,25.4
2019-05-29T14:27:48.899Z,23.6
2019-05-29T14:32:51.121Z,23.9
2019-05-29T14:37:53.477Z,23
2019-05-29T14:42:55.682Z,22.1
2019-05-29T14:47:57.862Z,21.799999
2019-05-29T14:53:00.250Z,24.200001
2019-05-29T14:58:03.629Z,23.4
2019-05-29T15:03:05.317Z,26.200001
2019-05-29T15:08:08.022Z,25.700001
2019-05-29T15:13:10.900Z,24.9
2019-05-29T15:18:15.357Z,24.4
2019-05-29T15:23:15.460Z,25.1
2019-05-29T15:28:17.863Z,26.200001
2019-05-29T15:33:18.710Z,25.1
2019-05-29T15:38:20.919Z,27
2019-05-29T15:43:23.252Z,24.5
2019-05-29T15:48:25.530Z,22.6
2019-05-29T15:53:27.794Z,23.6
2019-05-29T15:58:30.078Z,27.200001
2019-05-29T16:03:32.434Z,24
2019-05-29T16:08:34.637Z,27.4
2019-05-29T16:13:36.988Z,27
2019-05-29T16:18:39.497Z,25.299999
2019-05-29T16:23:41.770Z,24.700001
2019-05-29T16:28:44.053Z,26.200001
2019-05-29T16:33:46.250Z,26.299999
2019-05-29T16:38:48.583Z,24.6
2019-05-29T16:43:50.811Z,27
2019-05-29T16:48:53.248Z,27.700001
2019-05-29T16:53:55.382Z,28.6
2019-05-29T16:58:57.957Z,27.5
2019-05-29T17:03:59.900Z,26.4
2019-05-29T17:09:02.490Z,27.200001
2019-05-29T17:14:04.545Z,27.799999
2019-05-29T17:19:06.770Z,27.700001
2019-05-29T17:24:09.386Z,28.6
2019-05-29T17:29:11.348Z,29.200001
2019-05-29T17:34:14.856Z,30.200001
2019-05-29T17:39:17.036Z,29.799999
2019-05-29T17:44:19.398Z,31.200001
2019-05-29T17:49:24.974Z,31.1
2019-05-29T17:54:23.889Z,30.6
2019-05-29T17:59:26.318Z,32.5
2019-05-29T18:04:27.433Z,31.799999
2019-05-29T18:14:32.085Z,32.400002
2019-05-29T18:19:34.419Z,32.599998
2019-05-29T18:24:36.683Z,33.400002
2019-05-29T18:29:38.983Z,33.799999
2019-05-29T18:34:41.348Z,34.5
2019-05-29T18:39:43.534Z,34.900002
2019-05-29T18:44:45.792Z,35.900002
2019-05-29T18:49:48.051Z,36.099998
2019-05-29T18:54:50.727Z,36.900002
2019-05-29T18:59:52.721Z,37.5
2019-05-29T19:04:55.038Z,37.900002
2019-05-29T19:09:57.577Z,41.5
2019-05-29T19:14:59.615Z,51.099998
2019-05-29T19:20:01.915Z,54.900002
2019-05-29T19:25:04.154Z,58.200001
2019-05-29T19:30:06.497Z,61
2019-05-29T19:35:08.831Z,63.400002
2019-05-29T19:40:10.925Z,64.599998
2019-05-29T19:45:13.290Z,68.5
2019-05-29T19:50:15.559Z,68.800003
2019-05-29T19:55:18.058Z,71.199997
2019-05-29T20:00:20.315Z,71.900002
2019-05-29T20:05:22.448Z,75
2019-05-29T20:10:24.738Z,75.599998
2019-05-29T20:15:27.823Z,77.699997
2019-05-29T20:20:30.351Z,79.800003
2019-05-29T20:25:32.739Z,79.800003
2019-05-29T20:30:34.389Z,82.699997
2019-05-29T20:35:36.927Z,85
2019-05-29T20:40:39.402Z,82.900002
2019-05-29T20:45:41.696Z,85.099998
2019-05-29T20:50:43.390Z,84.800003
2019-05-29T20:55:45.461Z,82.599998
2019-05-29T21:00:47.728Z,81.800003
2019-05-29T21:05:50.002Z,82.800003
2019-05-29T21:10:52.485Z,82.900002
2019-05-29T21:15:54.618Z,83.199997
2019-05-29T21:20:56.933Z,81.900002
2019-05-29T21:25:59.441Z,77.5
2019-05-29T21:31:01.475Z,71.5
2019-05-29T21:36:03.832Z,68.199997
2019-05-29T21:41:06.240Z,67
2019-05-29T21:46:08.493Z,66.699997
2019-05-29T21:51:10.683Z,65.699997
2019-05-29T21:56:12.919Z,66.900002
2019-05-29T22:01:15.295Z,68.699997
2019-05-29T22:06:17.742Z,69.699997
2019-05-29T22:11:19.821Z,69.099998
2019-05-29T22:16:22.131Z,69.300003
2019-05-29T22:21:24.531Z,70.400002
2019-05-29T22:26:26.694Z,71.599998
2019-05-29T22:31:29.007Z,72.900002
2019-05-29T22:36:31.249Z,71.900002
2019-05-29T22:41:33.606Z,70.699997
2019-05-29T22:46:35.943Z,70.199997
2019-05-29T22:51:38.152Z,70.300003
2019-05-29T22:56:40.504Z,69.400002
2019-05-29T23:01:42.825Z,70.099998
2019-05-29T23:06:45.052Z,69.900002
2019-05-29T23:11:47.407Z,69.800003
2019-05-29T23:16:49.687Z,70.900002
2019-05-29T23:21:52.378Z,71.400002
2019-05-29T23:26:54.939Z,72.900002
2019-05-29T23:31:56.866Z,73.599998
2019-05-29T23:36:59.182Z,73.5
2019-05-29T23:42:01.591Z,73.900002
2019-05-29T23:47:04.116Z,73.599998
2019-05-29T23:52:05.759Z,72.599998
2019-05-29T23:57:08.017Z,73
